Airfield :
LOGIN :

Register | Disclaimer

   EN    FR    IT 

 










Legend :    VFR   Marginal VFR   IFR   Intensive IFR   Very Intensive IFR
Visi :
Ceiling :
>= 8 km
>= 3000ft
5 to 8 km
1000 to 3000 ft
1500m to 5 km
500 to 1000 ft
800 to 1500m
200 to 500 ft
< 800m
< 200 ft
Symbols :   Thunderstorms  Fog  Heavy snow  Heavy precipitations  Wind > 20 kt
SIGMETs :     Misc.  Thunderstorms  Icing  Turbulence  Mountain Waves  Volcanic Ashes







- Airport Elevation : 465 ft
- IATA code : LEJ


EDDP - Leipzig Halle

CURRENT METAR :
  • 211620Z VRB02KT 6000 SCT009 BKN037 M01/M01 Q1017 TEMPO 4000 BR BKN009

EXPIRED METARs :
  • 211550Z 26003KT 7000 SCT009 SCT039 M00/M01 Q1017 TEMPO BKN009
  • 211520Z VRB02KT 8000 FEW008 SCT036 00/M01 Q1016 NOSIG
  • 211450Z 31004KT 9000 FEW008 02/00 Q1016 NOSIG
  • 211420Z 33007KT 9000 FEW009 02/00 Q1015 NOSIG
  • 211350Z 32009KT 9999 FEW009 SCT033 02/00 Q1015 NOSIG
  • 211320Z 34008KT 9999 FEW008 SCT033 03/01 Q1015 NOSIG

TAF COR TAF EDDP
Valid from the 21 at 12:00 until the 22 at 12:00 UTC


211100Z 2112/2212 32007KT 8000 BKN005
BECMG 2112/2114 SCT008 SCT030
BECMG 2121/2123 16009KT
PROB30
TEMPO 2205/2212 2000 -SN BKN010
No reported NOTAMs for that airfield.



MET'MAP, your aeronautical weather chart ! - Copyright ORBIFLY December 2007 - Disclaimer

ORBIFLY MET'MAP TEAM :

Programming & Development : Alexandra Zaïnal
Concept & Development : Baudouin d'Aumeries
Co-Development & Prog : Marc-Olivier Méhu
Technical & hardware support : Manuel Goepfert

Contact : metmap@orbifly.com




SOURCES & CREDITS :

   NOAA